createdAt,value
2019-05-21T00:01:57.473Z,37.24
2019-05-21T00:04:28.809Z,37.30
2019-05-21T00:06:59.862Z,37.30
2019-05-21T00:09:30.965Z,37.47
2019-05-21T00:12:02.352Z,37.45
2019-05-21T00:14:33.764Z,37.47
2019-05-21T00:17:04.887Z,37.48
2019-05-21T00:19:35.983Z,37.51
2019-05-21T00:22:07.106Z,37.59
2019-05-21T00:24:38.540Z,37.76
2019-05-21T00:27:10.977Z,37.76
2019-05-21T00:30:18.509Z,38.01
2019-05-21T00:33:26.220Z,38.21
2019-05-21T00:36:33.792Z,38.21
2019-05-21T00:39:41.262Z,38.43
2019-05-21T00:42:11.255Z,38.45
2019-05-21T00:44:43.116Z,38.42
2019-05-21T00:47:14.727Z,38.45
2019-05-21T00:49:45.907Z,38.50
2019-05-21T00:52:17.150Z,38.54
2019-05-21T00:54:48.173Z,38.66
2019-05-21T00:57:19.204Z,38.66
2019-05-21T00:59:50.192Z,38.73
2019-05-21T01:02:21.203Z,38.84
2019-05-21T01:05:00.781Z,38.84
2019-05-21T01:07:25.481Z,38.75
2019-05-21T01:09:56.512Z,38.96
2019-05-21T01:12:27.653Z,38.96
2019-05-21T01:14:58.855Z,38.94
2019-05-21T01:17:29.951Z,38.96
2019-05-21T01:20:00.898Z,38.96
2019-05-21T01:22:32.001Z,39.25
2019-05-21T01:25:03.099Z,39.28
2019-05-21T01:27:34.189Z,39.28
2019-05-21T01:30:06.510Z,39.38
2019-05-21T01:32:37.669Z,39.38
2019-05-21T01:35:17.127Z,39.58
2019-05-21T01:37:41.507Z,39.66
2019-05-21T01:40:13.643Z,39.77
2019-05-21T01:42:44.723Z,39.73
2019-05-21T01:45:15.814Z,39.76
2019-05-21T01:47:46.926Z,39.76
2019-05-21T01:50:18.119Z,39.79
2019-05-21T01:52:49.240Z,39.89
2019-05-21T01:55:20.309Z,39.96
2019-05-21T01:57:51.407Z,40.04
2019-05-21T02:00:22.605Z,40.08
2019-05-21T02:02:53.773Z,40.12
2019-05-21T02:05:32.951Z,40.13
2019-05-21T02:07:57.841Z,40.19
2019-05-21T02:10:29.117Z,40.26
2019-05-21T02:13:00.501Z,40.28
2019-05-21T02:15:31.766Z,40.28
2019-05-21T02:18:02.912Z,40.36
2019-05-21T02:20:33.979Z,40.42
2019-05-21T02:23:05.322Z,40.54
2019-05-21T02:25:36.310Z,40.37
2019-05-21T02:28:07.544Z,40.42
2019-05-21T02:30:38.511Z,40.51
2019-05-21T02:33:09.645Z,40.52
2019-05-21T02:35:53.670Z,40.45
2019-05-21T02:38:13.420Z,40.55
2019-05-21T02:40:44.445Z,40.44
2019-05-21T02:43:15.575Z,40.40
2019-05-21T02:45:46.659Z,40.49
2019-05-21T02:48:17.692Z,40.54
2019-05-21T02:50:48.797Z,40.59
2019-05-21T02:53:19.859Z,40.65
2019-05-21T02:55:50.971Z,40.65
2019-05-21T02:58:22.185Z,40.74
2019-05-21T03:01:07.092Z,40.69
2019-05-21T03:03:38.151Z,40.58
2019-05-21T03:06:14.651Z,40.63
2019-05-21T03:08:42.128Z,40.70
2019-05-21T03:11:13.228Z,40.65
2019-05-21T03:13:44.351Z,40.71
2019-05-21T03:16:15.442Z,40.76
2019-05-21T03:18:46.722Z,40.63
2019-05-21T03:21:17.795Z,41.05
2019-05-21T03:23:48.942Z,41.05
2019-05-21T03:26:19.961Z,40.80
2019-05-21T03:28:50.957Z,40.65
2019-05-21T03:31:21.956Z,40.73
2019-05-21T03:33:53.025Z,40.80
2019-05-21T03:36:33.506Z,40.67
2019-05-21T03:38:56.921Z,40.67
2019-05-21T03:41:28.074Z,40.71
2019-05-21T03:43:59.373Z,40.74
2019-05-21T03:46:30.458Z,40.70
2019-05-21T03:49:02.667Z,40.72
2019-05-21T03:51:33.734Z,40.76
2019-05-21T03:54:04.856Z,40.78
2019-05-21T03:56:35.945Z,40.73
2019-05-21T03:59:06.937Z,40.80
2019-05-21T04:01:38.036Z,40.71
2019-05-21T04:04:09.077Z,40.72
2019-05-21T04:06:51.179Z,40.67
2019-05-21T04:09:13.053Z,40.52
2019-05-21T04:11:44.359Z,40.62
2019-05-21T04:14:17.175Z,40.70
2019-05-21T04:16:55.644Z,40.79
2019-05-21T04:19:34.090Z,40.79
2019-05-21T04:22:07.403Z,40.53
2019-05-21T04:24:38.563Z,40.56
2019-05-21T04:27:09.605Z,40.68
2019-05-21T04:29:40.588Z,40.68
2019-05-21T04:32:11.703Z,40.76
2019-05-21T04:34:42.916Z,40.76
2019-05-21T04:37:17.479Z,40.80
2019-05-21T04:39:47.849Z,40.97
2019-05-21T04:42:18.789Z,40.97
2019-05-21T04:44:49.940Z,40.87
2019-05-21T04:47:20.951Z,40.88
2019-05-21T04:49:52.175Z,40.84
2019-05-21T04:52:23.187Z,40.79
2019-05-21T04:54:54.299Z,40.59
2019-05-21T04:57:25.472Z,40.61
2019-05-21T04:59:56.624Z,40.39
2019-05-21T05:02:27.655Z,40.35
2019-05-21T05:04:58.793Z,40.29
2019-05-21T05:07:32.597Z,40.23
2019-05-21T05:10:04.720Z,40.31
2019-05-21T05:12:35.898Z,40.29
2019-05-21T05:15:06.879Z,40.29
2019-05-21T05:17:38.069Z,40.10
2019-05-21T05:20:09.201Z,39.94
2019-05-21T05:22:40.269Z,39.63
2019-05-21T05:25:11.505Z,39.56
2019-05-21T05:27:42.719Z,39.54
2019-05-21T05:30:14.085Z,39.44
2019-05-21T05:32:45.411Z,39.36
2019-05-21T05:35:16.455Z,39.23
2019-05-21T05:37:48.877Z,39.23
2019-05-21T05:40:23.509Z,39.40
2019-05-21T05:42:54.647Z,39.16
2019-05-21T05:45:26.510Z,38.96
2019-05-21T05:47:57.642Z,39.01
2019-05-21T05:50:33.475Z,39.18
2019-05-21T05:53:04.759Z,41.64
2019-05-21T05:55:35.891Z,39.04
2019-05-21T05:58:07.252Z,38.73
2019-05-21T06:00:38.411Z,38.71
2019-05-21T06:03:09.417Z,38.25
2019-05-21T06:05:40.769Z,39.38
2019-05-21T06:08:11.887Z,37.95
2019-05-21T06:10:43.095Z,38.57
2019-05-21T06:13:14.537Z,38.40
2019-05-21T06:15:45.576Z,37.28
2019-05-21T06:18:16.721Z,37.71
2019-05-21T06:20:47.954Z,38.04
2019-05-21T06:23:19.071Z,36.56
2019-05-21T06:25:50.201Z,35.94
2019-05-21T06:28:21.383Z,35.58
2019-05-21T06:30:52.654Z,35.47
2019-05-21T06:33:23.810Z,35.51
2019-05-21T06:35:54.928Z,35.31
2019-05-21T06:38:26.068Z,35.68
2019-05-21T06:40:57.141Z,35.72
2019-05-21T06:43:28.280Z,35.67
2019-05-21T06:45:59.380Z,35.55
2019-05-21T06:48:30.593Z,35.63
2019-05-21T06:51:01.739Z,35.87
2019-05-21T06:53:32.850Z,35.86
2019-05-21T06:56:07.414Z,35.65
2019-05-21T06:58:37.526Z,35.88
2019-05-21T07:01:09.589Z,35.85
2019-05-21T07:03:40.576Z,36.05
2019-05-21T07:06:11.663Z,37.01
2019-05-21T07:08:42.957Z,36.54
2019-05-21T07:11:14.125Z,37.58
2019-05-21T07:13:45.337Z,38.09
2019-05-21T07:16:17.526Z,37.16
2019-05-21T07:18:48.852Z,37.05
2019-05-21T07:21:19.966Z,36.95
2019-05-21T07:23:51.370Z,37.40
2019-05-21T07:26:22.789Z,37.37
2019-05-21T07:28:55.630Z,36.56
2019-05-21T07:31:26.816Z,36.70
2019-05-21T07:33:58.001Z,36.83
2019-05-21T07:36:29.115Z,36.37
2019-05-21T07:39:00.254Z,37.04
2019-05-21T07:41:31.374Z,37.27
2019-05-21T07:44:02.460Z,37.10
2019-05-21T07:46:33.731Z,36.51
2019-05-21T07:49:04.837Z,37.14
2019-05-21T07:51:36.975Z,37.71
2019-05-21T07:54:08.095Z,37.45
2019-05-21T07:56:39.168Z,36.42
2019-05-21T07:59:11.377Z,36.45
2019-05-21T08:01:42.421Z,37.41
2019-05-21T08:04:13.663Z,36.52
2019-05-21T08:06:44.856Z,36.47
2019-05-21T08:09:15.949Z,37.93
2019-05-21T08:11:47.480Z,36.91
2019-05-21T08:14:19.480Z,36.25
2019-05-21T08:16:50.724Z,37.32
2019-05-21T08:19:22.071Z,36.44
2019-05-21T08:21:53.294Z,37.11
2019-05-21T08:24:24.579Z,37.73
2019-05-21T08:26:55.657Z,37.05
2019-05-21T08:29:26.969Z,36.67
2019-05-21T08:31:58.152Z,35.88
2019-05-21T08:34:32.461Z,35.51
2019-05-21T08:37:03.647Z,36.79
2019-05-21T08:39:34.889Z,36.26
2019-05-21T08:42:05.944Z,36.50
2019-05-21T08:44:37.235Z,37.90
2019-05-21T08:47:08.355Z,35.98
2019-05-21T08:49:39.555Z,34.80
2019-05-21T08:52:10.837Z,35.64
2019-05-21T08:54:49.554Z,35.16
2019-05-21T08:57:20.743Z,34.72
2019-05-21T08:59:51.942Z,34.75
2019-05-21T09:02:24.804Z,33.46
2019-05-21T09:04:55.938Z,33.85
2019-05-21T09:07:26.918Z,33.95
2019-05-21T09:09:57.982Z,34.18
2019-05-21T09:12:29.197Z,33.68
2019-05-21T09:15:00.440Z,33.66
2019-05-21T09:17:31.649Z,33.08
2019-05-21T09:20:03.032Z,33.53
2019-05-21T09:22:34.155Z,33.50
2019-05-21T09:25:06.952Z,33.51
2019-05-21T09:27:38.001Z,33.65
2019-05-21T09:30:09.681Z,33.67
2019-05-21T09:32:40.964Z,34.04
2019-05-21T09:35:12.115Z,34.36
2019-05-21T09:37:43.163Z,34.36
2019-05-21T09:40:14.380Z,34.15
2019-05-21T09:42:45.729Z,34.21
2019-05-21T09:45:16.976Z,34.23
2019-05-21T09:47:48.019Z,34.19
2019-05-21T09:50:19.192Z,34.04
2019-05-21T09:52:50.319Z,34.45
2019-05-21T09:55:21.549Z,35.39
2019-05-21T09:57:57.118Z,35.24
2019-05-21T10:00:32.645Z,35.28
2019-05-21T10:03:04.830Z,35.03
2019-05-21T10:05:35.895Z,35.14
2019-05-21T10:08:06.971Z,34.48
2019-05-21T10:10:38.061Z,34.60
2019-05-21T10:13:09.034Z,34.44
2019-05-21T10:15:40.350Z,34.76
2019-05-21T10:18:11.375Z,34.65
2019-05-21T10:20:42.963Z,33.72
2019-05-21T10:23:15.535Z,33.70
2019-05-21T10:25:46.672Z,33.47
2019-05-21T10:28:17.790Z,33.14
2019-05-21T10:30:48.971Z,33.21
2019-05-21T10:33:20.136Z,34.87
2019-05-21T10:35:51.134Z,33.52
2019-05-21T10:38:22.204Z,33.20
2019-05-21T10:40:53.283Z,32.45
2019-05-21T10:43:25.365Z,32.78
2019-05-21T10:45:56.502Z,32.52
2019-05-21T10:48:27.605Z,32.95
2019-05-21T10:50:58.736Z,32.84
2019-05-21T10:53:29.903Z,33.06
2019-05-21T10:56:01.061Z,33.91
2019-05-21T10:58:32.188Z,34.11
2019-05-21T11:01:13.856Z,33.75
2019-05-21T11:04:02.901Z,33.92
2019-05-21T11:06:34.100Z,33.30
2019-05-21T11:09:08.645Z,33.43
2019-05-21T11:11:39.720Z,33.99
2019-05-21T11:14:10.669Z,35.42
2019-05-21T11:16:42.213Z,36.27
2019-05-21T11:19:13.340Z,36.16
2019-05-21T11:21:44.619Z,34.41
2019-05-21T11:24:16.707Z,33.89
2019-05-21T11:26:48.062Z,35.16
2019-05-21T11:29:19.168Z,34.96
2019-05-21T11:31:57.074Z,34.00
2019-05-21T11:34:23.029Z,34.07
2019-05-21T11:36:54.236Z,34.12
2019-05-21T11:39:25.378Z,34.56
2019-05-21T11:41:56.617Z,33.57
2019-05-21T11:44:27.880Z,33.74
2019-05-21T11:46:59.041Z,34.37
2019-05-21T11:49:30.257Z,35.26
2019-05-21T11:52:01.478Z,33.99
2019-05-21T11:54:33.657Z,34.09
2019-05-21T11:57:04.989Z,34.02
2019-05-21T11:59:36.171Z,33.70
2019-05-21T12:02:09.162Z,33.05
2019-05-21T12:04:40.434Z,32.72
2019-05-21T12:07:11.679Z,32.20
2019-05-21T12:09:42.747Z,32.00
2019-05-21T12:12:14.006Z,33.59
2019-05-21T12:14:45.133Z,32.37
2019-05-21T12:17:17.114Z,32.44
2019-05-21T12:19:48.325Z,33.18
2019-05-21T12:22:19.681Z,31.75
2019-05-21T12:24:50.861Z,32.35
2019-05-21T12:27:22.109Z,32.80
2019-05-21T12:29:53.317Z,32.00
2019-05-21T12:32:24.599Z,31.67
2019-05-21T12:34:55.905Z,32.15
2019-05-21T12:37:27.170Z,31.97
2019-05-21T12:39:58.362Z,31.99
2019-05-21T12:42:29.402Z,31.56
2019-05-21T12:45:01.657Z,31.91
2019-05-21T12:47:32.759Z,32.89
2019-05-21T12:50:04.928Z,32.59
2019-05-21T12:52:36.178Z,33.31
2019-05-21T12:55:08.422Z,32.39
2019-05-21T12:57:39.639Z,32.00
2019-05-21T13:00:12.753Z,31.98
2019-05-21T13:02:43.961Z,32.16
2019-05-21T13:05:15.335Z,32.63
2019-05-21T13:07:46.715Z,33.26
2019-05-21T13:10:17.879Z,33.55
2019-05-21T13:12:49.023Z,33.34
2019-05-21T13:15:20.333Z,33.01
2019-05-21T13:17:51.544Z,32.21
2019-05-21T13:20:22.583Z,32.62
2019-05-21T13:22:53.810Z,32.28
2019-05-21T13:25:24.904Z,32.27
2019-05-21T13:27:57.834Z,32.60
2019-05-21T13:30:32.491Z,33.53
2019-05-21T13:33:03.873Z,33.20
2019-05-21T13:35:35.157Z,34.31
2019-05-21T13:38:06.349Z,33.75
2019-05-21T13:40:39.159Z,33.17
2019-05-21T13:43:22.918Z,32.82
2019-05-21T13:46:07.945Z,32.95
2019-05-21T13:49:01.558Z,33.09
2019-05-21T13:51:37.524Z,32.95
2019-05-21T13:54:09.001Z,33.01
2019-05-21T13:56:40.160Z,33.07
2019-05-21T13:59:12.400Z,33.39
2019-05-21T14:01:43.677Z,33.63
2019-05-21T14:04:15.774Z,33.87
2019-05-21T14:06:47.107Z,33.87
2019-05-21T14:09:18.304Z,33.25
2019-05-21T14:11:50.591Z,33.46
2019-05-21T14:14:22.002Z,33.04
2019-05-21T14:16:52.983Z,32.92
2019-05-21T14:19:24.447Z,33.64
2019-05-21T14:21:57.742Z,33.19
2019-05-21T14:24:34.779Z,33.29
2019-05-21T14:27:06.767Z,33.69
2019-05-21T14:29:38.050Z,34.31
2019-05-21T14:32:09.128Z,34.24
2019-05-21T14:34:40.114Z,34.35
2019-05-21T14:37:11.295Z,34.30
2019-05-21T14:39:42.287Z,34.65
2019-05-21T14:42:13.368Z,34.40
2019-05-21T14:44:44.531Z,34.72
2019-05-21T14:47:15.829Z,35.08
2019-05-21T14:49:48.763Z,34.70
2019-05-21T14:52:19.949Z,35.22
2019-05-21T14:54:50.963Z,35.63
2019-05-21T14:57:22.190Z,35.18
2019-05-21T14:59:55.835Z,35.40
2019-05-21T15:02:28.479Z,35.53
2019-05-21T15:04:59.503Z,36.40
2019-05-21T15:07:30.704Z,36.98
2019-05-21T15:10:01.923Z,38.07
2019-05-21T15:12:33.341Z,37.81
2019-05-21T15:15:06.688Z,36.73
2019-05-21T15:17:37.963Z,37.22
2019-05-21T15:20:10.756Z,36.73
2019-05-21T15:22:41.939Z,36.29
2019-05-21T15:25:13.281Z,36.35
2019-05-21T15:27:44.489Z,37.15
2019-05-21T15:30:15.546Z,37.23
2019-05-21T15:32:46.717Z,37.38
2019-05-21T15:35:20.162Z,38.01
2019-05-21T15:37:51.249Z,38.46
2019-05-21T15:40:22.240Z,38.20
2019-05-21T15:42:53.870Z,39.04
2019-05-21T15:45:25.249Z,38.14
2019-05-21T15:47:56.665Z,38.37
2019-05-21T15:50:27.778Z,38.40
2019-05-21T15:52:59.043Z,38.09
2019-05-21T15:55:30.224Z,38.07
2019-05-21T15:58:01.216Z,37.74
2019-05-21T16:00:32.395Z,37.75
2019-05-21T16:03:03.662Z,37.91
2019-05-21T16:05:36.301Z,38.09
2019-05-21T16:08:07.585Z,38.07
2019-05-21T16:10:38.797Z,38.55
2019-05-21T16:13:09.993Z,38.70
2019-05-21T16:15:41.266Z,38.83
2019-05-21T16:18:12.395Z,39.30
2019-05-21T16:20:43.715Z,39.23
2019-05-21T16:23:14.955Z,39.39
2019-05-21T16:25:46.120Z,39.65
2019-05-21T16:28:17.261Z,40.38
2019-05-21T16:30:48.697Z,40.84
2019-05-21T16:33:20.807Z,40.84
2019-05-21T16:35:51.908Z,40.52
2019-05-21T16:38:23.390Z,40.58
2019-05-21T16:40:54.635Z,40.75
2019-05-21T16:43:25.906Z,40.48
2019-05-21T16:45:57.274Z,40.44
2019-05-21T16:48:28.431Z,40.38
2019-05-21T16:50:59.511Z,40.52
2019-05-21T16:53:30.567Z,40.80
2019-05-21T16:56:02.709Z,40.94
2019-05-21T16:58:33.967Z,41.16
2019-05-21T17:01:06.659Z,41.40
2019-05-21T17:03:37.966Z,41.62
2019-05-21T17:06:09.220Z,41.81
2019-05-21T17:08:40.558Z,42.08
2019-05-21T17:11:11.724Z,42.24
2019-05-21T17:13:42.907Z,42.33
2019-05-21T17:16:13.982Z,42.57
2019-05-21T17:18:45.250Z,42.78
2019-05-21T17:21:16.508Z,42.91
2019-05-21T17:23:47.719Z,43.07
2019-05-21T17:26:19.019Z,43.27
2019-05-21T17:28:50.645Z,43.38
2019-05-21T17:31:21.867Z,43.55
2019-05-21T17:33:52.945Z,43.72
2019-05-21T17:36:24.120Z,43.83
2019-05-21T17:38:55.335Z,43.98
2019-05-21T17:41:26.504Z,44.16
2019-05-21T17:43:57.508Z,44.26
2019-05-21T17:46:28.853Z,44.36
2019-05-21T17:49:00.142Z,44.52
2019-05-21T17:51:31.336Z,44.55
2019-05-21T17:54:02.596Z,44.83
2019-05-21T17:56:33.656Z,44.90
2019-05-21T17:59:04.848Z,44.95
2019-05-21T18:01:36.162Z,44.92
2019-05-21T18:04:07.300Z,45.01
2019-05-21T18:06:39.147Z,45.03
2019-05-21T18:09:12.621Z,45.01
2019-05-21T18:11:43.945Z,45.06
2019-05-21T18:14:15.218Z,45.09
2019-05-21T18:16:46.614Z,45.09
2019-05-21T18:19:17.634Z,45.25
2019-05-21T18:21:49.006Z,45.31
2019-05-21T18:24:20.142Z,45.43
2019-05-21T18:26:51.215Z,45.55
2019-05-21T18:29:22.264Z,45.67
2019-05-21T18:31:53.581Z,45.79
2019-05-21T18:34:24.831Z,46.00
2019-05-21T18:36:55.873Z,46.10
2019-05-21T18:39:27.379Z,46.18
2019-05-21T18:41:58.519Z,46.36
2019-05-21T18:44:29.726Z,46.40
2019-05-21T18:47:00.965Z,46.55
2019-05-21T18:49:32.151Z,46.80
2019-05-21T18:52:03.550Z,46.90
2019-05-21T18:54:34.900Z,47.04
2019-05-21T18:57:06.190Z,47.16
2019-05-21T18:59:37.317Z,47.46
2019-05-21T19:02:10.212Z,47.69
2019-05-21T19:04:42.317Z,47.90
2019-05-21T19:07:13.533Z,47.97
2019-05-21T19:09:44.709Z,48.15
2019-05-21T19:12:15.963Z,48.34
2019-05-21T19:14:50.092Z,48.45
2019-05-21T19:17:34.682Z,48.58
2019-05-21T19:19:54.029Z,48.65
2019-05-21T19:22:27.588Z,48.89
2019-05-21T19:24:58.201Z,48.97
2019-05-21T19:27:29.353Z,48.98
2019-05-21T19:30:00.590Z,49.08
2019-05-21T19:32:31.875Z,49.17
2019-05-21T19:35:03.476Z,49.41
2019-05-21T19:37:34.745Z,49.61
2019-05-21T19:40:06.611Z,49.80
2019-05-21T19:42:52.284Z,49.85
2019-05-21T19:45:10.500Z,49.93
2019-05-21T19:47:41.497Z,50.00
2019-05-21T19:50:12.760Z,50.20
2019-05-21T19:52:44.104Z,50.23
2019-05-21T19:55:15.205Z,50.30
2019-05-21T19:57:46.268Z,50.42
2019-05-21T20:00:19.718Z,50.52
2019-05-21T20:02:50.884Z,50.63
2019-05-21T20:05:22.125Z,50.67
2019-05-21T20:07:53.309Z,50.72
2019-05-21T20:10:24.707Z,50.80
2019-05-21T20:12:55.933Z,50.89
2019-05-21T20:15:27.194Z,51.07
2019-05-21T20:18:07.071Z,51.46
2019-05-21T20:20:33.243Z,51.68
2019-05-21T20:23:08.397Z,51.71
2019-05-21T20:25:38.214Z,51.71
2019-05-21T20:28:10.848Z,51.79
2019-05-21T20:30:44.833Z,51.94
2019-05-21T20:33:15.914Z,51.99
2019-05-21T20:35:47.453Z,52.10
2019-05-21T20:38:18.806Z,52.13
2019-05-21T20:40:50.045Z,52.17
2019-05-21T20:43:21.343Z,52.23
2019-05-21T20:45:53.045Z,52.29
2019-05-21T20:48:26.348Z,52.33
2019-05-21T20:50:59.051Z,52.35
2019-05-21T20:53:30.044Z,52.34
2019-05-21T20:56:01.159Z,52.46
2019-05-21T20:58:32.554Z,52.50
2019-05-21T21:01:05.281Z,52.50
2019-05-21T21:03:36.522Z,52.56
2019-05-21T21:06:07.571Z,52.64
2019-05-21T21:08:38.805Z,52.67
2019-05-21T21:11:11.178Z,52.71
2019-05-21T21:13:42.895Z,52.72
2019-05-21T21:16:14.189Z,52.86
2019-05-21T21:18:45.275Z,52.86
2019-05-21T21:21:17.376Z,52.94
2019-05-21T21:23:50.088Z,53.01
2019-05-21T21:26:21.692Z,53.07
2019-05-21T21:28:52.827Z,53.05
2019-05-21T21:31:24.047Z,53.16
2019-05-21T21:33:55.252Z,53.17
2019-05-21T21:36:26.813Z,53.12
2019-05-21T21:38:58.037Z,53.13
2019-05-21T21:41:29.817Z,53.21
2019-05-21T21:44:01.215Z,53.25
2019-05-21T21:46:32.325Z,53.26
2019-05-21T21:49:04.954Z,53.33
2019-05-21T21:51:35.979Z,53.48
2019-05-21T21:54:08.377Z,53.70
2019-05-21T21:56:39.408Z,53.74
2019-05-21T21:59:10.635Z,53.94
2019-05-21T22:01:56.674Z,54.06
2019-05-21T22:04:29.969Z,54.22
2019-05-21T22:07:00.967Z,54.30
2019-05-21T22:09:33.700Z,54.44
2019-05-21T22:12:06.536Z,54.53
2019-05-21T22:14:50.184Z,54.54
2019-05-21T22:17:12.092Z,54.63
2019-05-21T22:19:43.494Z,54.59
2019-05-21T22:22:16.355Z,54.60
2019-05-21T22:24:47.714Z,54.65
2019-05-21T22:27:19.106Z,54.64
2019-05-21T22:29:50.230Z,54.60
2019-05-21T22:32:21.827Z,54.71
2019-05-21T22:34:53.149Z,54.72
2019-05-21T22:37:25.875Z,54.73
2019-05-21T22:39:57.099Z,54.77
2019-05-21T22:42:29.154Z,54.80
2019-05-21T22:45:07.935Z,54.83
2019-05-21T22:47:33.309Z,54.88
2019-05-21T22:50:06.160Z,54.98
2019-05-21T22:52:37.255Z,55.12
2019-05-21T22:55:08.640Z,55.16
2019-05-21T22:57:39.876Z,55.21
2019-05-21T23:00:12.107Z,55.23
2019-05-21T23:02:43.451Z,55.40
2019-05-21T23:05:14.558Z,55.54
2019-05-21T23:07:47.133Z,55.77
2019-05-21T23:10:18.708Z,55.96
2019-05-21T23:12:49.993Z,55.82
2019-05-21T23:15:25.532Z,55.58
2019-05-21T23:18:15.004Z,55.41
2019-05-21T23:21:04.309Z,55.18
2019-05-21T23:23:35.967Z,55.08
2019-05-21T23:26:08.958Z,55.14
2019-05-21T23:28:40.102Z,55.18
2019-05-21T23:31:12.774Z,55.14
2019-05-21T23:33:44.174Z,55.02
2019-05-21T23:36:15.728Z,54.92
2019-05-21T23:38:47.904Z,54.79
2019-05-21T23:41:20.399Z,54.75
2019-05-21T23:43:52.956Z,54.73
2019-05-21T23:46:24.019Z,54.57
2019-05-21T23:48:55.447Z,54.42
2019-05-21T23:51:26.408Z,54.25
2019-05-21T23:53:57.495Z,53.98
2019-05-21T23:56:28.683Z,53.83
2019-05-21T23:59:00.004Z,53.81
